Warning: Javascript must be enabled to use all the features on this page!


Page Loading - Please Wait...

Click to hideNews Bulletins

Peak Streamflow for New Jersey

Click to hide state-specific text

ALL DATA ARE AT LOCAL TIME


USGS 01396000 Robinsons Branch at Rahway NJ

Union County, New Jersey
Hydrologic Unit Code 02030104
Latitude  40°36'21", Longitude  74°17'59" NAD83
Drainage area 21.6  square miles
Gage datum 19.99 feet above NGVD29
Output formats
Table
Graph
Tab-separated file
peakfq (watstore) format
Reselect output format
Water
Year
Date Gage
Height
(feet)
Stream-
flow
(cfs)
1940 1940-05-31 5.35 1,4005
1941 1941-02-07 4.96 8325
1942 1942-08-09 5.25 1,2405
1943 1943-05-12 4.83 6735
1944 1944-01-06 4.95 8195
1945 1945-09-19 5.06 1,0105
1946 1946-06-02 5.01 9325
1947 1947-04-05 4.69 5355
1948 1947-11-08 5.11 1,0705
1949 1948-12-31 4.99 8995
1950 1950-03-23 4.67 5125
1951 1951-03-30 4.90 7895
1952 1952-06-01 5.26 1,3005,C
1953 1953-03-13 5.36 1,4905,C
1954 1953-12-14 4.56 3875,C
1955 1955-08-13 5.06 1,0005,C
1956 1956-04-08 4.68 5155,C
1957 1957-04-05 4.71 5575,C
1958 1958-02-28 5.14 1,1105,C
1959 1959-08-09 5.12 1,0805,C
1960 1960-09-12 5.20 1,1905,C
1961 1961-03-23 4.98 8685,C
1962 1962-03-12 5.15 1,1205,C
1963 1963-03-06 4.82 6325,C
1964 1963-11-07 4.81 6675,C
1965 1965-02-08 4.77 6055,C
1966 1966-09-21   1,0302,5,C
1967 1967-03-07 5.32 1,3905,C
1968 1968-05-29 6.00 2,5505,C
1969 1969-08-15 6.02 2,5905,C
1970 1970-07-31 5.12 1,0705,C
1971 1971-08-27 5.73 2,050C
1972 1972-07-13 4.78 1,080C
1973 1973-08-02 5.65 2,380C
1974 1973-12-21 4.98 1,280C
1975 1975-07-15 5.83 3,110C
1976 1975-11-12 4.52 868C
1977 1977-03-22 4.74 1,200C
1978 1977-11-08 5.06 1,820C
1979 1979-05-23   1,470C
1980 1980-04-28   1,290C
1981 1981-05-11   561C
1982 1982-01-04   1,200C
1983 1983-04-10   1,330C
1984 1983-12-14   1,500C
1985 1985-09-27   1,260C
1986 1985-11-17 5.13 1,140C
1987 1987-04-04 5.12 1,110C
1988 1988-07-22 5.27 1,450C
1989 1989-09-20 5.83 2,980C
1990 1990-08-10 5.22 1,330C
1991 1991-03-04 5.24 1,340C
1992 1992-06-05 5.62 2,280C
1993 1993-04-01 4.91 754C
1994 1994-01-28 5.28 1,430C
1995 1995-07-18 4.87 850C
1996 1996-01-19 5.32 1,650C
1999 1999-09-16 6.48 4,800C
2000 2000-07-27 4.632  
2001 2001-03-30 5.14 1,080C
2002 2002-05-18 4.74 424C
2003 2003-06-04 5.37 1,510C
2004 2004-05-12 5.31 1,400C
2005 2005-03-28 5.22 1,230C
2006 2005-10-08 5.12 1,050C
2007 2007-04-15 6.04 3,630C
2008 2008-09-06 5.52 2,050C
2009 2008-12-12 5.12 1,110C
2010 2010-03-13 6.17 4,080C
2011 2011-08-28 6.56 5,600C
2012 2011-12-08 5.19 1,250C
2013 2013-06-07 5.13 1,130C
2014 2014-04-30 5.84 2,980C
2015 2015-01-18 4.98 874C
2016 2016-02-25 4.97 858C
2017 2017-06-24 5.18  
2018 2017-11-08 4.24  
2019 2019-07-18 5.28  
?
  Peak Gage-Height Qualification Codes.
?
  Peak Streamflow Qualification Codes.